EHGR/GLZ METAR and TAF weather

Enter ICAO airport designator
Station Type Date Time Source
EHGR METAR 2018/10/16 14:25 UTC NOAA

EHGR 161425Z AUTO 15005KT 110V180 9999 OVC180 25/09 Q1017 BLU


Station Type Date Time Source
EHGR Decoded METAR 2018/10/16 14:25 UTC NOAA

Gilze-Rijen, Netherlands (EHGR) 51-34N 004-56E 24M
Oct 16, 2018 - 10:25 AM EDT / 2018.10.16 1425 UTC
Wind: from the SSE (150 degrees) at 6 MPH (5 KT) (direction variable):0
Visibility: greater than 7 mile(s):0
Sky conditions: overcast
Temperature: 77 F (25 C)
Dew Point: 48 F (9 C)
Relative Humidity: 36%
Pressure (altimeter): 30.03 in. Hg (1017 hPa)
ob: EHGR 161425Z AUTO 15005KT 110V180 9999 OVC180 25/09 Q1017 BLU
cycle: 14

Station Type Date Time Source
EHGR TAF 2018/10/16 13:06 UTC NOAA

TAF EHGR 161244Z 1613/1701 17004KT CAVOK


Example: see airport list